sensor_id;sensor_type;location;lat;lon;timestamp;temperature;humidity
8860;DHT22;4466;50.948;4.832;2024-02-21T00:00:56;9.50;99.90
8860;DHT22;4466;50.948;4.832;2024-02-21T00:03:22;9.50;99.90
8860;DHT22;4466;50.948;4.832;2024-02-21T00:05:48;9.50;99.90
8860;DHT22;4466;50.948;4.832;2024-02-21T00:08:13;9.50;99.90
8860;DHT22;4466;50.948;4.832;2024-02-21T00:10:39;9.50;99.90
8860;DHT22;4466;50.948;4.832;2024-02-21T00:13:04;9.60;99.90
8860;DHT22;4466;50.948;4.832;2024-02-21T00:15:30;9.60;99.90
8860;DHT22;4466;50.948;4.832;2024-02-21T00:17:56;9.60;99.90
8860;DHT22;4466;50.948;4.832;2024-02-21T00:20:21;9.60;99.90
8860;DHT22;4466;50.948;4.832;2024-02-21T00:22:47;9.50;99.90
8860;DHT22;4466;50.948;4.832;2024-02-21T00:25:12;9.50;99.90
8860;DHT22;4466;50.948;4.832;2024-02-21T00:27:38;9.50;99.90
8860;DHT22;4466;50.948;4.832;2024-02-21T00:30:05;9.50;99.90
8860;DHT22;4466;50.948;4.832;2024-02-21T00:32:31;9.50;99.90
8860;DHT22;4466;50.948;4.832;2024-02-21T00:34:57;9.50;99.90
8860;DHT22;4466;50.948;4.832;2024-02-21T00:37:23;9.50;99.90
8860;DHT22;4466;50.948;4.832;2024-02-21T00:39:48;9.50;99.90
8860;DHT22;4466;50.948;4.832;2024-02-21T00:42:14;9.50;99.90
8860;DHT22;4466;50.948;4.832;2024-02-21T00:44:40;9.50;99.90
8860;DHT22;4466;50.948;4.832;2024-02-21T00:47:05;9.50;99.90
8860;DHT22;4466;50.948;4.832;2024-02-21T00:49:31;9.50;99.90
8860;DHT22;4466;50.948;4.832;2024-02-21T00:51:56;9.50;99.90
8860;DHT22;4466;50.948;4.832;2024-02-21T00:54:22;9.50;99.90
8860;DHT22;4466;50.948;4.832;2024-02-21T00:56:48;9.50;99.90
8860;DHT22;4466;50.948;4.832;2024-02-21T00:59:14;9.50;99.90
8860;DHT22;4466;50.948;4.832;2024-02-21T01:01:39;9.50;99.90
8860;DHT22;4466;50.948;4.832;2024-02-21T01:04:08;9.50;99.90
8860;DHT22;4466;50.948;4.832;2024-02-21T01:06:34;9.50;99.90
8860;DHT22;4466;50.948;4.832;2024-02-21T01:09:00;9.40;99.90
8860;DHT22;4466;50.948;4.832;2024-02-21T01:11:25;9.40;99.90
8860;DHT22;4466;50.948;4.832;2024-02-21T01:13:51;9.40;99.90
8860;DHT22;4466;50.948;4.832;2024-02-21T01:16:16;9.50;99.90
8860;DHT22;4466;50.948;4.832;2024-02-21T01:18:42;9.40;99.90
8860;DHT22;4466;50.948;4.832;2024-02-21T01:21:08;9.40;99.90
8860;DHT22;4466;50.948;4.832;2024-02-21T01:23:35;9.40;99.90
8860;DHT22;4466;50.948;4.832;2024-02-21T01:26:02;9.30;99.90
8860;DHT22;4466;50.948;4.832;2024-02-21T01:28:27;9.40;99.90
8860;DHT22;4466;50.948;4.832;2024-02-21T01:30:53;9.40;99.90
8860;DHT22;4466;50.948;4.832;2024-02-21T01:33:19;9.40;99.90
8860;DHT22;4466;50.948;4.832;2024-02-21T01:35:44;9.40;99.90
8860;DHT22;4466;50.948;4.832;2024-02-21T01:38:12;9.40;99.90
8860;DHT22;4466;50.948;4.832;2024-02-21T01:40:38;9.40;99.90
8860;DHT22;4466;50.948;4.832;2024-02-21T01:43:03;9.40;99.90
8860;DHT22;4466;50.948;4.832;2024-02-21T01:45:29;9.40;99.90
8860;DHT22;4466;50.948;4.832;2024-02-21T01:47:55;9.40;99.90
8860;DHT22;4466;50.948;4.832;2024-02-21T01:50:21;9.40;99.90
8860;DHT22;4466;50.948;4.832;2024-02-21T01:52:49;9.40;99.90
8860;DHT22;4466;50.948;4.832;2024-02-21T01:55:16;9.40;99.90
8860;DHT22;4466;50.948;4.832;2024-02-21T01:57:43;9.40;99.90
8860;DHT22;4466;50.948;4.832;2024-02-21T02:00:12;9.40;99.90
8860;DHT22;4466;50.948;4.832;2024-02-21T02:02:39;9.40;99.90
8860;DHT22;4466;50.948;4.832;2024-02-21T02:05:09;9.40;99.90
8860;DHT22;4466;50.948;4.832;2024-02-21T02:07:34;9.40;99.90
8860;DHT22;4466;50.948;4.832;2024-02-21T02:10:00;9.30;99.90
8860;DHT22;4466;50.948;4.832;2024-02-21T02:12:26;9.30;99.90
8860;DHT22;4466;50.948;4.832;2024-02-21T02:14:59;9.30;99.90
8860;DHT22;4466;50.948;4.832;2024-02-21T02:17:25;9.30;99.90
8860;DHT22;4466;50.948;4.832;2024-02-21T02:19:52;9.30;99.90
8860;DHT22;4466;50.948;4.832;2024-02-21T02:22:22;9.30;99.90
8860;DHT22;4466;50.948;4.832;2024-02-21T02:24:48;9.30;99.90
8860;DHT22;4466;50.948;4.832;2024-02-21T02:27:14;9.30;99.90
8860;DHT22;4466;50.948;4.832;2024-02-21T02:29:40;9.40;99.90
8860;DHT22;4466;50.948;4.832;2024-02-21T02:32:06;9.40;99.90
8860;DHT22;4466;50.948;4.832;2024-02-21T02:34:31;9.40;99.90
8860;DHT22;4466;50.948;4.832;2024-02-21T02:36:57;9.40;99.90
8860;DHT22;4466;50.948;4.832;2024-02-21T02:39:22;9.40;99.90
8860;DHT22;4466;50.948;4.832;2024-02-21T02:41:48;9.30;99.90
8860;DHT22;4466;50.948;4.832;2024-02-21T02:44:14;9.30;99.90
8860;DHT22;4466;50.948;4.832;2024-02-21T02:46:43;9.30;99.90
8860;DHT22;4466;50.948;4.832;2024-02-21T02:49:09;9.30;99.90
8860;DHT22;4466;50.948;4.832;2024-02-21T02:51:34;9.30;99.90
8860;DHT22;4466;50.948;4.832;2024-02-21T02:54:00;9.30;99.90
8860;DHT22;4466;50.948;4.832;2024-02-21T02:56:25;9.30;99.90
8860;DHT22;4466;50.948;4.832;2024-02-21T02:58:51;9.30;99.90
8860;DHT22;4466;50.948;4.832;2024-02-21T03:01:17;9.30;99.90
8860;DHT22;4466;50.948;4.832;2024-02-21T03:03:42;9.20;99.90
8860;DHT22;4466;50.948;4.832;2024-02-21T03:06:08;9.20;99.90
8860;DHT22;4466;50.948;4.832;2024-02-21T03:08:34;9.20;99.90
8860;DHT22;4466;50.948;4.832;2024-02-21T03:11:00;9.20;99.90
8860;DHT22;4466;50.948;4.832;2024-02-21T03:13:26;9.20;99.90
8860;DHT22;4466;50.948;4.832;2024-02-21T03:15:51;9.30;99.90
8860;DHT22;4466;50.948;4.832;2024-02-21T03:18:17;9.30;99.90
8860;DHT22;4466;50.948;4.832;2024-02-21T03:20:43;9.30;99.90
8860;DHT22;4466;50.948;4.832;2024-02-21T03:23:08;9.30;99.90
8860;DHT22;4466;50.948;4.832;2024-02-21T03:25:34;9.30;99.90
8860;DHT22;4466;50.948;4.832;2024-02-21T03:27:59;9.30;99.90
8860;DHT22;4466;50.948;4.832;2024-02-21T03:30:25;9.30;99.90
8860;DHT22;4466;50.948;4.832;2024-02-21T03:32:51;9.20;99.90
8860;DHT22;4466;50.948;4.832;2024-02-21T03:35:16;9.20;99.90
8860;DHT22;4466;50.948;4.832;2024-02-21T03:37:44;9.20;99.90
8860;DHT22;4466;50.948;4.832;2024-02-21T03:40:10;9.20;99.90
8860;DHT22;4466;50.948;4.832;2024-02-21T03:42:36;9.20;99.90
8860;DHT22;4466;50.948;4.832;2024-02-21T03:45:02;9.20;99.90
8860;DHT22;4466;50.948;4.832;2024-02-21T03:47:29;9.20;99.90
8860;DHT22;4466;50.948;4.832;2024-02-21T03:49:54;9.20;99.90
8860;DHT22;4466;50.948;4.832;2024-02-21T03:52:20;9.10;99.90
8860;DHT22;4466;50.948;4.832;2024-02-21T03:54:46;9.10;99.90
8860;DHT22;4466;50.948;4.832;2024-02-21T03:57:11;9.20;99.90
8860;DHT22;4466;50.948;4.832;2024-02-21T03:59:37;9.20;99.90
8860;DHT22;4466;50.948;4.832;2024-02-21T04:02:05;9.20;99.90
8860;DHT22;4466;50.948;4.832;2024-02-21T04:04:34;9.20;99.90
8860;DHT22;4466;50.948;4.832;2024-02-21T04:07:00;9.20;99.90
8860;DHT22;4466;50.948;4.832;2024-02-21T04:09:26;9.20;99.90
8860;DHT22;4466;50.948;4.832;2024-02-21T04:11:52;9.20;99.90
8860;DHT22;4466;50.948;4.832;2024-02-21T04:14:17;9.20;99.90
8860;DHT22;4466;50.948;4.832;2024-02-21T04:16:43;9.20;99.90
8860;DHT22;4466;50.948;4.832;2024-02-21T04:19:09;9.20;99.90
8860;DHT22;4466;50.948;4.832;2024-02-21T04:21:34;9.20;99.90
8860;DHT22;4466;50.948;4.832;2024-02-21T04:24:00;9.20;99.90
8860;DHT22;4466;50.948;4.832;2024-02-21T04:26:27;9.20;99.90
8860;DHT22;4466;50.948;4.832;2024-02-21T04:28:53;9.20;99.90
8860;DHT22;4466;50.948;4.832;2024-02-21T04:31:18;9.20;99.90
8860;DHT22;4466;50.948;4.832;2024-02-21T04:33:44;9.20;99.90
8860;DHT22;4466;50.948;4.832;2024-02-21T04:36:10;9.20;99.90
8860;DHT22;4466;50.948;4.832;2024-02-21T04:38:35;9.10;99.90
8860;DHT22;4466;50.948;4.832;2024-02-21T04:41:01;9.10;99.90
8860;DHT22;4466;50.948;4.832;2024-02-21T04:43:27;9.10;99.90
8860;DHT22;4466;50.948;4.832;2024-02-21T04:45:52;9.10;99.90
8860;DHT22;4466;50.948;4.832;2024-02-21T04:48:19;9.10;99.90
8860;DHT22;4466;50.948;4.832;2024-02-21T04:50:44;9.10;99.90
8860;DHT22;4466;50.948;4.832;2024-02-21T04:53:10;9.10;99.90
8860;DHT22;4466;50.948;4.832;2024-02-21T04:55:36;9.10;99.90
8860;DHT22;4466;50.948;4.832;2024-02-21T04:58:01;9.10;99.90
8860;DHT22;4466;50.948;4.832;2024-02-21T05:00:28;9.10;99.90
8860;DHT22;4466;50.948;4.832;2024-02-21T05:02:53;9.10;99.90
8860;DHT22;4466;50.948;4.832;2024-02-21T05:05:19;9.10;99.90
8860;DHT22;4466;50.948;4.832;2024-02-21T05:07:45;9.10;99.90
8860;DHT22;4466;50.948;4.832;2024-02-21T05:10:10;9.10;99.90
8860;DHT22;4466;50.948;4.832;2024-02-21T05:12:36;9.10;99.90
8860;DHT22;4466;50.948;4.832;2024-02-21T05:15:03;9.00;99.90
8860;DHT22;4466;50.948;4.832;2024-02-21T05:17:28;9.10;99.90
8860;DHT22;4466;50.948;4.832;2024-02-21T05:19:57;9.00;99.90
8860;DHT22;4466;50.948;4.832;2024-02-21T05:22:23;9.00;99.90
8860;DHT22;4466;50.948;4.832;2024-02-21T05:24:48;9.00;99.90
8860;DHT22;4466;50.948;4.832;2024-02-21T05:27:14;9.00;99.90
8860;DHT22;4466;50.948;4.832;2024-02-21T05:29:39;9.00;99.90
8860;DHT22;4466;50.948;4.832;2024-02-21T05:32:05;9.00;99.90
8860;DHT22;4466;50.948;4.832;2024-02-21T05:34:31;9.00;99.90
8860;DHT22;4466;50.948;4.832;2024-02-21T05:36:57;9.00;99.90
8860;DHT22;4466;50.948;4.832;2024-02-21T05:39:25;9.00;99.90
8860;DHT22;4466;50.948;4.832;2024-02-21T05:41:50;9.00;99.90
8860;DHT22;4466;50.948;4.832;2024-02-21T05:44:16;9.00;99.90
8860;DHT22;4466;50.948;4.832;2024-02-21T05:46:42;9.00;99.90
8860;DHT22;4466;50.948;4.832;2024-02-21T05:49:08;9.00;99.90
8860;DHT22;4466;50.948;4.832;2024-02-21T05:51:34;9.00;99.90
8860;DHT22;4466;50.948;4.832;2024-02-21T05:54:00;9.10;99.90
8860;DHT22;4466;50.948;4.832;2024-02-21T05:56:26;9.00;99.90
8860;DHT22;4466;50.948;4.832;2024-02-21T05:58:51;9.10;99.90
8860;DHT22;4466;50.948;4.832;2024-02-21T06:01:17;9.00;99.90
8860;DHT22;4466;50.948;4.832;2024-02-21T06:03:43;9.00;99.90
8860;DHT22;4466;50.948;4.832;2024-02-21T06:06:09;9.00;99.90
8860;DHT22;4466;50.948;4.832;2024-02-21T06:08:34;9.00;99.90
8860;DHT22;4466;50.948;4.832;2024-02-21T06:11:00;9.00;99.90
8860;DHT22;4466;50.948;4.832;2024-02-21T06:13:26;9.00;99.90
8860;DHT22;4466;50.948;4.832;2024-02-21T06:15:52;9.00;99.90
8860;DHT22;4466;50.948;4.832;2024-02-21T06:18:19;9.00;99.90
8860;DHT22;4466;50.948;4.832;2024-02-21T06:20:45;9.00;99.90
8860;DHT22;4466;50.948;4.832;2024-02-21T06:23:15;9.00;99.90
8860;DHT22;4466;50.948;4.832;2024-02-21T06:25:42;9.00;99.90
8860;DHT22;4466;50.948;4.832;2024-02-21T06:28:07;9.00;99.90
8860;DHT22;4466;50.948;4.832;2024-02-21T06:30:33;9.00;99.90
8860;DHT22;4466;50.948;4.832;2024-02-21T06:32:58;9.00;99.90
8860;DHT22;4466;50.948;4.832;2024-02-21T06:35:25;9.00;99.90
8860;DHT22;4466;50.948;4.832;2024-02-21T06:37:51;9.00;99.90
8860;DHT22;4466;50.948;4.832;2024-02-21T06:40:23;9.00;99.90
8860;DHT22;4466;50.948;4.832;2024-02-21T06:42:52;9.00;99.90
8860;DHT22;4466;50.948;4.832;2024-02-21T06:45:18;9.00;99.90
8860;DHT22;4466;50.948;4.832;2024-02-21T06:47:43;9.00;99.90
8860;DHT22;4466;50.948;4.832;2024-02-21T06:50:09;9.00;99.90
8860;DHT22;4466;50.948;4.832;2024-02-21T06:52:36;9.00;99.90
8860;DHT22;4466;50.948;4.832;2024-02-21T06:55:02;9.00;99.90
8860;DHT22;4466;50.948;4.832;2024-02-21T06:57:29;9.00;99.90
8860;DHT22;4466;50.948;4.832;2024-02-21T06:59:55;9.00;99.90
8860;DHT22;4466;50.948;4.832;2024-02-21T07:02:20;9.00;99.90
8860;DHT22;4466;50.948;4.832;2024-02-21T07:04:46;9.00;99.90
8860;DHT22;4466;50.948;4.832;2024-02-21T07:07:11;9.00;99.90
8860;DHT22;4466;50.948;4.832;2024-02-21T07:09:38;9.00;99.90
8860;DHT22;4466;50.948;4.832;2024-02-21T07:12:04;9.00;99.90
8860;DHT22;4466;50.948;4.832;2024-02-21T07:14:31;9.00;99.90
8860;DHT22;4466;50.948;4.832;2024-02-21T07:16:57;9.00;99.90
8860;DHT22;4466;50.948;4.832;2024-02-21T07:19:23;9.00;99.90
8860;DHT22;4466;50.948;4.832;2024-02-21T07:21:48;9.00;99.90
8860;DHT22;4466;50.948;4.832;2024-02-21T07:24:14;8.90;99.90
8860;DHT22;4466;50.948;4.832;2024-02-21T07:26:43;9.00;99.90
8860;DHT22;4466;50.948;4.832;2024-02-21T07:29:09;9.00;99.90
8860;DHT22;4466;50.948;4.832;2024-02-21T07:31:44;8.90;99.90
8860;DHT22;4466;50.948;4.832;2024-02-21T07:34:10;8.90;99.90
8860;DHT22;4466;50.948;4.832;2024-02-21T07:36:36;8.90;99.90
8860;DHT22;4466;50.948;4.832;2024-02-21T07:39:05;8.80;99.90
8860;DHT22;4466;50.948;4.832;2024-02-21T07:41:30;8.80;99.90
8860;DHT22;4466;50.948;4.832;2024-02-21T07:43:56;8.80;99.90
8860;DHT22;4466;50.948;4.832;2024-02-21T07:46:22;8.80;99.90
8860;DHT22;4466;50.948;4.832;2024-02-21T07:48:48;8.80;99.90
8860;DHT22;4466;50.948;4.832;2024-02-21T07:51:14;8.80;99.90
8860;DHT22;4466;50.948;4.832;2024-02-21T07:53:39;8.80;99.90
8860;DHT22;4466;50.948;4.832;2024-02-21T07:56:13;8.70;99.90
8860;DHT22;4466;50.948;4.832;2024-02-21T07:58:40;8.80;99.90
8860;DHT22;4466;50.948;4.832;2024-02-21T08:01:06;8.80;99.90
8860;DHT22;4466;50.948;4.832;2024-02-21T08:03:31;8.80;99.90
8860;DHT22;4466;50.948;4.832;2024-02-21T08:05:57;8.80;99.90
8860;DHT22;4466;50.948;4.832;2024-02-21T08:08:23;8.70;99.90
8860;DHT22;4466;50.948;4.832;2024-02-21T08:10:51;8.80;99.90
8860;DHT22;4466;50.948;4.832;2024-02-21T08:13:17;8.80;99.90
8860;DHT22;4466;50.948;4.832;2024-02-21T08:15:43;8.70;99.90
8860;DHT22;4466;50.948;4.832;2024-02-21T08:18:09;8.90;99.90
8860;DHT22;4466;50.948;4.832;2024-02-21T08:20:34;8.90;99.90
8860;DHT22;4466;50.948;4.832;2024-02-21T08:23:00;8.90;99.90
8860;DHT22;4466;50.948;4.832;2024-02-21T08:25:26;8.90;99.90
8860;DHT22;4466;50.948;4.832;2024-02-21T08:27:56;8.90;99.90
8860;DHT22;4466;50.948;4.832;2024-02-21T08:30:22;8.90;99.90
8860;DHT22;4466;50.948;4.832;2024-02-21T08:32:48;8.90;99.90
8860;DHT22;4466;50.948;4.832;2024-02-21T08:35:14;9.00;99.90
8860;DHT22;4466;50.948;4.832;2024-02-21T08:37:39;9.00;99.90
8860;DHT22;4466;50.948;4.832;2024-02-21T08:40:05;9.10;99.90
8860;DHT22;4466;50.948;4.832;2024-02-21T08:42:35;9.10;99.90
8860;DHT22;4466;50.948;4.832;2024-02-21T08:45:02;9.20;99.90
8860;DHT22;4466;50.948;4.832;2024-02-21T08:47:27;9.20;99.90
8860;DHT22;4466;50.948;4.832;2024-02-21T08:49:53;9.20;99.90
8860;DHT22;4466;50.948;4.832;2024-02-21T08:52:18;9.20;99.90
8860;DHT22;4466;50.948;4.832;2024-02-21T08:54:44;9.30;99.90
8860;DHT22;4466;50.948;4.832;2024-02-21T08:57:10;9.20;99.90
8860;DHT22;4466;50.948;4.832;2024-02-21T08:59:35;9.20;99.90
8860;DHT22;4466;50.948;4.832;2024-02-21T09:02:01;9.20;99.90
8860;DHT22;4466;50.948;4.832;2024-02-21T09:04:28;9.30;99.90
8860;DHT22;4466;50.948;4.832;2024-02-21T09:06:54;9.30;99.90
8860;DHT22;4466;50.948;4.832;2024-02-21T09:09:19;9.30;99.90
8860;DHT22;4466;50.948;4.832;2024-02-21T09:11:45;9.30;99.90
8860;DHT22;4466;50.948;4.832;2024-02-21T09:14:11;9.40;99.90
8860;DHT22;4466;50.948;4.832;2024-02-21T09:16:37;9.40;99.90
8860;DHT22;4466;50.948;4.832;2024-02-21T09:19:03;9.40;99.90
8860;DHT22;4466;50.948;4.832;2024-02-21T09:21:28;9.50;99.90
8860;DHT22;4466;50.948;4.832;2024-02-21T09:23:54;9.50;99.90
8860;DHT22;4466;50.948;4.832;2024-02-21T09:26:20;9.50;99.90
8860;DHT22;4466;50.948;4.832;2024-02-21T09:28:45;9.50;99.90
8860;DHT22;4466;50.948;4.832;2024-02-21T09:31:11;9.60;99.90
8860;DHT22;4466;50.948;4.832;2024-02-21T09:33:37;9.60;99.90
8860;DHT22;4466;50.948;4.832;2024-02-21T09:36:03;9.70;99.90
8860;DHT22;4466;50.948;4.832;2024-02-21T09:38:31;9.70;99.90
8860;DHT22;4466;50.948;4.832;2024-02-21T09:41:18;9.80;99.90
8860;DHT22;4466;50.948;4.832;2024-02-21T09:43:44;9.80;99.90
8860;DHT22;4466;50.948;4.832;2024-02-21T09:46:16;9.90;99.90
8860;DHT22;4466;50.948;4.832;2024-02-21T09:48:56;10.00;99.90
8860;DHT22;4466;50.948;4.832;2024-02-21T09:51:25;10.10;99.90
8860;DHT22;4466;50.948;4.832;2024-02-21T09:53:53;10.20;99.90
8860;DHT22;4466;50.948;4.832;2024-02-21T09:56:19;10.20;99.90
8860;DHT22;4466;50.948;4.832;2024-02-21T09:58:46;10.30;99.90
8860;DHT22;4466;50.948;4.832;2024-02-21T10:01:12;10.40;99.90
8860;DHT22;4466;50.948;4.832;2024-02-21T10:03:38;10.40;99.90
8860;DHT22;4466;50.948;4.832;2024-02-21T10:06:04;10.40;99.90
8860;DHT22;4466;50.948;4.832;2024-02-21T10:08:29;10.50;99.90
8860;DHT22;4466;50.948;4.832;2024-02-21T10:10:55;10.60;99.90
8860;DHT22;4466;50.948;4.832;2024-02-21T10:13:30;10.60;99.90
8860;DHT22;4466;50.948;4.832;2024-02-21T10:16:06;10.70;99.90
8860;DHT22;4466;50.948;4.832;2024-02-21T10:18:35;10.70;99.90
8860;DHT22;4466;50.948;4.832;2024-02-21T10:21:01;10.80;99.90
8860;DHT22;4466;50.948;4.832;2024-02-21T10:23:27;10.80;99.90
8860;DHT22;4466;50.948;4.832;2024-02-21T10:25:53;10.70;99.90
8860;DHT22;4466;50.948;4.832;2024-02-21T10:28:18;10.70;99.90
8860;DHT22;4466;50.948;4.832;2024-02-21T10:30:52;10.70;99.90
8860;DHT22;4466;50.948;4.832;2024-02-21T10:33:18;10.70;99.90
8860;DHT22;4466;50.948;4.832;2024-02-21T10:35:47;10.80;99.90
8860;DHT22;4466;50.948;4.832;2024-02-21T10:38:15;10.70;99.90
8860;DHT22;4466;50.948;4.832;2024-02-21T10:40:40;10.80;99.90
8860;DHT22;4466;50.948;4.832;2024-02-21T10:43:11;11.00;99.90
8860;DHT22;4466;50.948;4.832;2024-02-21T10:45:37;11.10;99.90
8860;DHT22;4466;50.948;4.832;2024-02-21T10:48:15;11.20;99.90
8860;DHT22;4466;50.948;4.832;2024-02-21T10:56:33;11.30;99.90
8860;DHT22;4466;50.948;4.832;2024-02-21T10:59:05;11.30;99.90
8860;DHT22;4466;50.948;4.832;2024-02-21T11:01:31;11.30;99.90
8860;DHT22;4466;50.948;4.832;2024-02-21T11:04:03;11.30;99.90
8860;DHT22;4466;50.948;4.832;2024-02-21T11:06:29;11.20;99.90
8860;DHT22;4466;50.948;4.832;2024-02-21T11:11:35;11.30;99.90
8860;DHT22;4466;50.948;4.832;2024-02-21T11:14:11;11.30;99.90
8860;DHT22;4466;50.948;4.832;2024-02-21T11:16:40;11.20;99.90
8860;DHT22;4466;50.948;4.832;2024-02-21T11:19:25;11.20;99.90
8860;DHT22;4466;50.948;4.832;2024-02-21T11:21:52;11.20;99.90
8860;DHT22;4466;50.948;4.832;2024-02-21T11:24:28;11.30;99.90
8860;DHT22;4466;50.948;4.832;2024-02-21T11:29:43;11.50;99.90
8860;DHT22;4466;50.948;4.832;2024-02-21T11:32:10;11.60;99.90
8860;DHT22;4466;50.948;4.832;2024-02-21T11:34:39;11.60;99.90
8860;DHT22;4466;50.948;4.832;2024-02-21T11:37:14;11.70;99.90
8860;DHT22;4466;50.948;4.832;2024-02-21T11:39:43;11.70;99.90
8860;DHT22;4466;50.948;4.832;2024-02-21T11:42:09;11.60;99.90
8860;DHT22;4466;50.948;4.832;2024-02-21T11:44:36;11.50;99.90
8860;DHT22;4466;50.948;4.832;2024-02-21T11:47:04;11.60;99.90
8860;DHT22;4466;50.948;4.832;2024-02-21T11:49:30;11.60;99.90
8860;DHT22;4466;50.948;4.832;2024-02-21T11:52:03;11.60;99.90
8860;DHT22;4466;50.948;4.832;2024-02-21T11:54:32;11.60;99.90
8860;DHT22;4466;50.948;4.832;2024-02-21T11:56:58;11.60;99.90
8860;DHT22;4466;50.948;4.832;2024-02-21T11:59:24;11.60;99.90
8860;DHT22;4466;50.948;4.832;2024-02-21T12:01:50;11.60;99.90
8860;DHT22;4466;50.948;4.832;2024-02-21T12:04:18;11.50;99.90
8860;DHT22;4466;50.948;4.832;2024-02-21T12:06:45;11.40;99.90
8860;DHT22;4466;50.948;4.832;2024-02-21T12:09:17;11.50;99.90
8860;DHT22;4466;50.948;4.832;2024-02-21T12:11:44;11.50;99.90
8860;DHT22;4466;50.948;4.832;2024-02-21T12:14:10;11.40;99.90
8860;DHT22;4466;50.948;4.832;2024-02-21T12:16:36;11.40;99.90
8860;DHT22;4466;50.948;4.832;2024-02-21T12:19:03;11.50;99.90
8860;DHT22;4466;50.948;4.832;2024-02-21T12:21:33;11.40;99.90
8860;DHT22;4466;50.948;4.832;2024-02-21T12:24:23;11.40;99.90
8860;DHT22;4466;50.948;4.832;2024-02-21T12:26:52;11.40;99.90
8860;DHT22;4466;50.948;4.832;2024-02-21T12:29:18;11.40;99.90
8860;DHT22;4466;50.948;4.832;2024-02-21T12:31:44;11.40;99.90
8860;DHT22;4466;50.948;4.832;2024-02-21T12:34:10;11.40;99.90
8860;DHT22;4466;50.948;4.832;2024-02-21T12:36:44;11.40;99.90
8860;DHT22;4466;50.948;4.832;2024-02-21T12:39:13;11.30;99.90
8860;DHT22;4466;50.948;4.832;2024-02-21T12:41:39;11.40;99.90
8860;DHT22;4466;50.948;4.832;2024-02-21T12:44:06;11.40;99.90
8860;DHT22;4466;50.948;4.832;2024-02-21T12:46:37;11.40;99.90
8860;DHT22;4466;50.948;4.832;2024-02-21T12:49:03;11.40;99.90
8860;DHT22;4466;50.948;4.832;2024-02-21T12:51:30;11.40;99.90
8860;DHT22;4466;50.948;4.832;2024-02-21T12:53:56;11.40;99.90
8860;DHT22;4466;50.948;4.832;2024-02-21T12:56:22;11.40;99.90
8860;DHT22;4466;50.948;4.832;2024-02-21T12:58:47;11.40;99.90
8860;DHT22;4466;50.948;4.832;2024-02-21T13:01:13;11.40;99.90
8860;DHT22;4466;50.948;4.832;2024-02-21T13:03:39;11.40;99.90
8860;DHT22;4466;50.948;4.832;2024-02-21T13:06:05;11.40;99.90
8860;DHT22;4466;50.948;4.832;2024-02-21T13:08:31;11.30;99.90
8860;DHT22;4466;50.948;4.832;2024-02-21T13:10:57;11.40;99.90
8860;DHT22;4466;50.948;4.832;2024-02-21T13:13:23;11.40;99.90
8860;DHT22;4466;50.948;4.832;2024-02-21T13:15:48;11.40;99.90
8860;DHT22;4466;50.948;4.832;2024-02-21T13:18:14;11.40;99.90
8860;DHT22;4466;50.948;4.832;2024-02-21T13:20:40;11.50;99.90
8860;DHT22;4466;50.948;4.832;2024-02-21T13:23:05;11.60;99.90
8860;DHT22;4466;50.948;4.832;2024-02-21T13:25:31;11.60;99.90
8860;DHT22;4466;50.948;4.832;2024-02-21T13:27:56;11.60;99.90
8860;DHT22;4466;50.948;4.832;2024-02-21T13:30:22;11.60;99.90
8860;DHT22;4466;50.948;4.832;2024-02-21T13:32:48;11.60;99.90
8860;DHT22;4466;50.948;4.832;2024-02-21T13:35:14;11.50;99.90
8860;DHT22;4466;50.948;4.832;2024-02-21T13:37:41;11.50;99.90
8860;DHT22;4466;50.948;4.832;2024-02-21T13:40:08;11.50;99.90
8860;DHT22;4466;50.948;4.832;2024-02-21T13:42:37;11.50;99.90
8860;DHT22;4466;50.948;4.832;2024-02-21T13:45:04;11.50;99.90
8860;DHT22;4466;50.948;4.832;2024-02-21T13:47:33;11.40;99.90
8860;DHT22;4466;50.948;4.832;2024-02-21T13:49:59;11.40;99.90
8860;DHT22;4466;50.948;4.832;2024-02-21T13:52:24;11.30;99.90
8860;DHT22;4466;50.948;4.832;2024-02-21T13:54:52;11.30;99.90
8860;DHT22;4466;50.948;4.832;2024-02-21T13:57:17;11.30;99.90
8860;DHT22;4466;50.948;4.832;2024-02-21T13:59:43;11.30;99.90
8860;DHT22;4466;50.948;4.832;2024-02-21T14:02:09;11.30;99.90
8860;DHT22;4466;50.948;4.832;2024-02-21T14:04:35;11.30;99.90
8860;DHT22;4466;50.948;4.832;2024-02-21T14:07:01;11.20;99.90
8860;DHT22;4466;50.948;4.832;2024-02-21T14:09:27;11.10;99.90
8860;DHT22;4466;50.948;4.832;2024-02-21T14:11:55;11.10;99.90
8860;DHT22;4466;50.948;4.832;2024-02-21T14:14:20;11.10;99.90
8860;DHT22;4466;50.948;4.832;2024-02-21T14:16:46;11.10;99.90
8860;DHT22;4466;50.948;4.832;2024-02-21T14:19:16;11.00;99.90
8860;DHT22;4466;50.948;4.832;2024-02-21T14:21:43;11.00;99.90
8860;DHT22;4466;50.948;4.832;2024-02-21T14:24:08;10.90;99.90
8860;DHT22;4466;50.948;4.832;2024-02-21T14:26:34;10.90;99.90
8860;DHT22;4466;50.948;4.832;2024-02-21T14:29:01;10.80;99.90
8860;DHT22;4466;50.948;4.832;2024-02-21T14:31:30;10.80;99.90
8860;DHT22;4466;50.948;4.832;2024-02-21T14:33:56;10.70;99.90
8860;DHT22;4466;50.948;4.832;2024-02-21T14:36:22;10.60;99.90
8860;DHT22;4466;50.948;4.832;2024-02-21T14:38:49;10.60;99.90
8860;DHT22;4466;50.948;4.832;2024-02-21T14:41:18;10.50;99.90
8860;DHT22;4466;50.948;4.832;2024-02-21T14:43:44;10.50;99.90
8860;DHT22;4466;50.948;4.832;2024-02-21T14:46:10;10.50;99.90
8860;DHT22;4466;50.948;4.832;2024-02-21T14:48:37;10.50;99.90
8860;DHT22;4466;50.948;4.832;2024-02-21T14:51:03;10.40;99.90
8860;DHT22;4466;50.948;4.832;2024-02-21T14:53:30;10.40;99.90
8860;DHT22;4466;50.948;4.832;2024-02-21T14:55:56;10.30;99.90
8860;DHT22;4466;50.948;4.832;2024-02-21T14:58:23;10.30;99.90
8860;DHT22;4466;50.948;4.832;2024-02-21T15:00:49;10.20;99.90
8860;DHT22;4466;50.948;4.832;2024-02-21T15:03:16;10.20;99.90
8860;DHT22;4466;50.948;4.832;2024-02-21T15:05:46;10.20;99.90
8860;DHT22;4466;50.948;4.832;2024-02-21T15:08:12;10.20;99.90
8860;DHT22;4466;50.948;4.832;2024-02-21T15:10:38;10.20;99.90
8860;DHT22;4466;50.948;4.832;2024-02-21T15:13:04;10.20;99.90
8860;DHT22;4466;50.948;4.832;2024-02-21T15:15:30;10.20;99.90
8860;DHT22;4466;50.948;4.832;2024-02-21T15:17:56;10.20;99.90
8860;DHT22;4466;50.948;4.832;2024-02-21T15:20:21;10.10;99.90
8860;DHT22;4466;50.948;4.832;2024-02-21T15:22:47;10.10;99.90
8860;DHT22;4466;50.948;4.832;2024-02-21T15:25:13;10.10;99.90
8860;DHT22;4466;50.948;4.832;2024-02-21T15:27:44;10.10;99.90
8860;DHT22;4466;50.948;4.832;2024-02-21T15:30:13;10.20;99.90
8860;DHT22;4466;50.948;4.832;2024-02-21T15:32:40;10.20;99.90
8860;DHT22;4466;50.948;4.832;2024-02-21T15:35:09;10.20;99.90
8860;DHT22;4466;50.948;4.832;2024-02-21T15:37:36;10.10;99.90
8860;DHT22;4466;50.948;4.832;2024-02-21T15:40:02;10.10;99.90
8860;DHT22;4466;50.948;4.832;2024-02-21T15:42:28;10.10;99.90
8860;DHT22;4466;50.948;4.832;2024-02-21T15:44:54;10.10;99.90
8860;DHT22;4466;50.948;4.832;2024-02-21T15:47:20;10.10;99.90
8860;DHT22;4466;50.948;4.832;2024-02-21T15:49:49;10.10;99.90
8860;DHT22;4466;50.948;4.832;2024-02-21T15:52:15;10.00;99.90
8860;DHT22;4466;50.948;4.832;2024-02-21T15:54:41;10.00;99.90
8860;DHT22;4466;50.948;4.832;2024-02-21T15:57:06;9.90;99.90
8860;DHT22;4466;50.948;4.832;2024-02-21T15:59:33;10.00;99.90
8860;DHT22;4466;50.948;4.832;2024-02-21T16:01:58;9.90;99.90
8860;DHT22;4466;50.948;4.832;2024-02-21T16:04:27;9.90;99.90
8860;DHT22;4466;50.948;4.832;2024-02-21T16:06:54;9.90;99.90
8860;DHT22;4466;50.948;4.832;2024-02-21T16:09:20;9.90;99.90
8860;DHT22;4466;50.948;4.832;2024-02-21T16:11:46;9.90;99.90
8860;DHT22;4466;50.948;4.832;2024-02-21T16:14:12;9.90;99.90
8860;DHT22;4466;50.948;4.832;2024-02-21T16:16:38;9.90;99.90
8860;DHT22;4466;50.948;4.832;2024-02-21T16:19:06;9.90;99.90